Time;durP1;ratioP1;P1;durP2;ratioP2;P2;SDS_P1;SDS_P2;PMS_P1;PMS_P2;Temp;Humidity;BMP_temperature;BMP_pressure;BME280_temperature;BME280_humidity;BME280_pressure;Samples;Min_cycle;Max_cycle;Signal;HPM_P1;HPM_P2
2022/03/24 00:02:10;;;;;;;;;;;3.90;80.50;;;;;;5113198;28;20015;-80
2022/03/24 00:04:37;;;;;;;;;;;3.80;80.30;;;;;;5115597;28;19994;-78
2022/03/24 00:07:03;;;;;;;;;;;3.70;80.60;;;;;;5115232;28;20135;-79
2022/03/24 00:09:29;;;;;;;;;;;3.70;80.60;;;;;;5096667;28;19915;-78
2022/03/24 00:11:55;;;;;;;;;;;3.70;80.90;;;;;;5111778;28;19908;-78
2022/03/24 00:14:21;;;;;;;;;;;3.70;81.10;;;;;;5112729;28;20437;-78
2022/03/24 00:16:46;;;;;;;;;;;3.70;81.40;;;;;;5110098;28;19919;-80
2022/03/24 00:19:12;;;;;;;;;;;3.80;80.90;;;;;;5089435;28;19911;-80
2022/03/24 00:21:37;;;;;;;;;;;3.70;80.90;;;;;;5090583;28;19923;-79
2022/03/24 00:24:03;;;;;;;;;;;3.70;81.20;;;;;;5105933;28;19912;-80
2022/03/24 00:26:29;;;;;;;;;;;3.70;81.30;;;;;;5106453;28;19996;-80
2022/03/24 00:28:54;;;;;;;;;;;3.70;81.70;;;;;;5087344;28;20104;-79
2022/03/24 00:31:20;;;;;;;;;;;3.60;81.80;;;;;;5106989;28;19947;-80
2022/03/24 00:33:47;;;;;;;;;;;3.60;82.20;;;;;;5088324;28;19907;-79
2022/03/24 00:36:14;;;;;;;;;;;3.50;82.40;;;;;;5105466;28;19907;-80
2022/03/24 00:38:40;;;;;;;;;;;3.50;82.40;;;;;;5086390;28;19915;-80
2022/03/24 00:41:06;;;;;;;;;;;3.40;82.50;;;;;;5106471;28;20150;-79
2022/03/24 00:43:32;;;;;;;;;;;3.30;83.00;;;;;;5102458;28;19926;-80
2022/03/24 00:45:58;;;;;;;;;;;3.20;83.40;;;;;;5103494;28;19952;-80
2022/03/24 00:48:24;;;;;;;;;;;3.20;83.80;;;;;;5104934;28;19907;-80
2022/03/24 00:50:50;;;;;;;;;;;3.10;84.00;;;;;;5103428;28;20313;-80
2022/03/24 00:53:16;;;;;;;;;;;3.20;84.30;;;;;;5103687;28;19919;-80
2022/03/24 00:55:43;;;;;;;;;;;3.10;84.40;;;;;;5104015;28;20571;-80
2022/03/24 00:58:08;;;;;;;;;;;3.10;84.70;;;;;;5105127;28;19960;-80
2022/03/24 01:00:36;;;;;;;;;;;3.10;85.20;;;;;;5089686;28;19927;-80
2022/03/24 01:03:06;;;;;;;;;;;2.90;85.30;;;;;;5089900;28;19999;-80
2022/03/24 01:05:37;;;;;;;;;;;3.00;85.60;;;;;;5091858;28;19934;-80
2022/03/24 01:08:04;;;;;;;;;;;2.90;85.80;;;;;;5104531;28;19935;-80
2022/03/24 01:10:29;;;;;;;;;;;2.80;85.80;;;;;;5103566;28;19908;-80
2022/03/24 01:12:59;;;;;;;;;;;2.80;86.10;;;;;;5104598;28;19915;-80
2022/03/24 01:15:26;;;;;;;;;;;2.70;86.20;;;;;;5103751;28;19954;-80
2022/03/24 01:17:52;;;;;;;;;;;2.70;86.60;;;;;;5084819;28;19958;-80
2022/03/24 01:20:17;;;;;;;;;;;2.60;86.80;;;;;;5102555;28;19908;-80
2022/03/24 01:22:43;;;;;;;;;;;2.60;87.30;;;;;;5083889;28;20124;-80
2022/03/24 01:25:09;;;;;;;;;;;2.50;87.40;;;;;;5084340;28;19992;-80
2022/03/24 01:27:35;;;;;;;;;;;2.50;87.50;;;;;;5102323;28;20445;-80
2022/03/24 01:30:01;;;;;;;;;;;2.50;87.70;;;;;;5102740;28;20225;-80
2022/03/24 01:32:27;;;;;;;;;;;2.50;88.20;;;;;;5102753;28;20166;-80
2022/03/24 01:34:54;;;;;;;;;;;2.40;88.30;;;;;;5102682;28;19908;-80
2022/03/24 01:37:22;;;;;;;;;;;2.40;88.40;;;;;;5083275;28;20215;-80
2022/03/24 01:39:47;;;;;;;;;;;2.80;88.60;;;;;;5101949;28;20003;-79
2022/03/24 01:42:13;;;;;;;;;;;2.40;88.50;;;;;;5102252;28;19951;-80
2022/03/24 01:44:38;;;;;;;;;;;2.30;88.70;;;;;;5102082;28;20093;-80
2022/03/24 01:47:05;;;;;;;;;;;2.30;88.90;;;;;;5100722;28;20496;-79
2022/03/24 01:49:32;;;;;;;;;;;2.30;89.00;;;;;;5100589;28;19956;-79
2022/03/24 01:51:58;;;;;;;;;;;2.30;89.00;;;;;;5100323;28;19984;-79
2022/03/24 01:54:25;;;;;;;;;;;2.20;89.30;;;;;;5100110;28;20215;-79
2022/03/24 01:56:51;;;;;;;;;;;2.20;89.10;;;;;;5100707;28;20116;-79
2022/03/24 01:59:17;;;;;;;;;;;2.20;89.30;;;;;;5082134;28;19970;-79
2022/03/24 02:01:43;;;;;;;;;;;2.20;89.30;;;;;;5100287;28;20204;-79
2022/03/24 02:04:09;;;;;;;;;;;2.20;89.40;;;;;;5082433;28;19938;-79
2022/03/24 02:06:35;;;;;;;;;;;2.20;89.10;;;;;;5100639;28;20359;-78
2022/03/24 02:09:01;;;;;;;;;;;2.20;89.30;;;;;;5082087;28;19907;-79
2022/03/24 02:11:27;;;;;;;;;;;2.20;89.30;;;;;;5102212;28;20003;-79
2022/03/24 02:13:54;;;;;;;;;;;2.20;89.00;;;;;;5088704;28;19908;-79
2022/03/24 02:16:20;;;;;;;;;;;2.20;89.20;;;;;;5108414;28;20011;-80
2022/03/24 02:18:46;;;;;;;;;;;2.20;89.10;;;;;;5089505;28;19943;-80
2022/03/24 02:21:15;;;;;;;;;;;2.10;89.70;;;;;;5089485;28;19961;-80
2022/03/24 02:23:44;;;;;;;;;;;2.00;89.70;;;;;;5107856;28;19916;-80
2022/03/24 02:26:10;;;;;;;;;;;2.00;89.90;;;;;;5106653;28;19908;-80
2022/03/24 02:28:36;;;;;;;;;;;2.00;90.10;;;;;;5083426;28;20543;-79
2022/03/24 02:31:02;;;;;;;;;;;2.00;90.20;;;;;;5101382;28;20268;-79
2022/03/24 02:33:28;;;;;;;;;;;1.90;90.00;;;;;;5082312;28;19915;-79
2022/03/24 02:35:53;;;;;;;;;;;1.90;90.20;;;;;;5100154;28;20498;-79
2022/03/24 02:38:22;;;;;;;;;;;1.90;90.20;;;;;;5081841;28;19908;-79
2022/03/24 02:40:49;;;;;;;;;;;2.20;90.30;;;;;;5099796;28;19908;-79
2022/03/24 02:43:19;;;;;;;;;;;1.90;90.30;;;;;;5085481;28;19915;-79
2022/03/24 02:45:46;;;;;;;;;;;1.80;90.30;;;;;;5104166;28;19964;-79
2022/03/24 02:48:12;;;;;;;;;;;1.80;90.50;;;;;;5104259;28;20147;-80
2022/03/24 02:50:37;;;;;;;;;;;1.80;90.60;;;;;;5104081;28;19916;-80
2022/03/24 02:53:04;;;;;;;;;;;1.70;90.70;;;;;;5103615;28;20263;-80
2022/03/24 02:55:30;;;;;;;;;;;1.80;90.60;;;;;;5103948;28;19907;-80
2022/03/24 02:57:55;;;;;;;;;;;1.70;90.60;;;;;;5085886;28;19907;-79
2022/03/24 03:00:25;;;;;;;;;;;1.80;90.60;;;;;;5084921;28;19923;-80
2022/03/24 03:02:54;;;;;;;;;;;1.80;90.60;;;;;;5085341;28;20120;-79
2022/03/24 03:05:21;;;;;;;;;;;1.80;90.60;;;;;;5104075;28;19908;-80
2022/03/24 03:07:47;;;;;;;;;;;1.80;90.60;;;;;;5104251;28;20119;-80
2022/03/24 03:10:13;;;;;;;;;;;1.70;90.60;;;;;;5086051;28;20317;-80
2022/03/24 03:12:39;;;;;;;;;;;1.70;90.70;;;;;;5085119;28;19911;-78
2022/03/24 03:15:05;;;;;;;;;;;1.60;90.80;;;;;;5085851;28;19962;-80
2022/03/24 03:17:30;;;;;;;;;;;1.60;90.90;;;;;;5104682;28;20196;-78
2022/03/24 03:19:56;;;;;;;;;;;1.60;91.00;;;;;;5084927;28;20318;-80
2022/03/24 03:22:22;;;;;;;;;;;1.60;91.00;;;;;;5085474;28;20539;-80
2022/03/24 03:24:48;;;;;;;;;;;1.60;91.00;;;;;;5104024;28;20551;-80
2022/03/24 03:27:14;;;;;;;;;;;1.60;91.00;;;;;;5086346;28;20376;-80
2022/03/24 03:29:40;;;;;;;;;;;1.60;91.00;;;;;;5104294;28;19915;-80
2022/03/24 03:32:06;;;;;;;;;;;2.00;91.20;;;;;;5085139;28;19908;-77
2022/03/24 03:34:31;;;;;;;;;;;1.50;91.00;;;;;;5084658;28;19908;-80
2022/03/24 03:36:59;;;;;;;;;;;1.60;91.00;;;;;;5104105;28;19965;-77
2022/03/24 03:39:26;;;;;;;;;;;1.50;91.10;;;;;;5084027;28;19915;-80
2022/03/24 03:41:52;;;;;;;;;;;1.50;91.00;;;;;;5103957;28;19912;-77
2022/03/24 03:44:19;;;;;;;;;;;1.50;91.20;;;;;;5084880;28;19968;-78
2022/03/24 03:46:45;;;;;;;;;;;1.50;91.00;;;;;;5103432;28;19919;-80
2022/03/24 03:49:11;;;;;;;;;;;1.40;91.10;;;;;;5083538;28;19907;-77
2022/03/24 03:51:37;;;;;;;;;;;1.40;91.20;;;;;;5084163;28;19955;-80
2022/03/24 03:54:10;;;;;;;;;;;1.70;91.30;;;;;;5085254;28;19912;-80
2022/03/24 03:56:36;;;;;;;;;;;1.30;91.20;;;;;;5085301;28;19915;-80
2022/03/24 03:59:03;;;;;;;;;;;1.30;91.40;;;;;;5085003;28;19935;-80
2022/03/24 04:01:30;;;;;;;;;;;1.30;91.40;;;;;;5103884;28;19908;-80
2022/03/24 04:03:57;;;;;;;;;;;1.30;91.40;;;;;;5103376;28;19933;-81
2022/03/24 04:06:24;;;;;;;;;;;1.30;91.40;;;;;;5084558;28;20181;-80
2022/03/24 04:08:50;;;;;;;;;;;1.40;91.50;;;;;;5104428;28;20163;-80
2022/03/24 04:11:15;;;;;;;;;;;1.30;91.30;;;;;;5092581;28;19908;-80
2022/03/24 04:13:42;;;;;;;;;;;2.60;91.70;;;;;;5110152;28;20473;-79
2022/03/24 04:16:11;;;;;;;;;;;1.30;91.40;;;;;;5092554;28;19908;-79
2022/03/24 04:18:38;;;;;;;;;;;1.20;91.50;;;;;;5111209;28;19911;-79
2022/03/24 04:21:04;;;;;;;;;;;1.50;91.60;;;;;;5109267;28;19919;-80
2022/03/24 04:23:29;;;;;;;;;;;1.20;91.40;;;;;;5111405;28;19919;-79
2022/03/24 04:25:55;;;;;;;;;;;1.20;91.60;;;;;;5105306;28;19966;-79
2022/03/24 04:28:20;;;;;;;;;;;1.20;91.30;;;;;;5103395;28;19908;-80
2022/03/24 04:30:47;;;;;;;;;;;1.20;91.30;;;;;;5084086;28;19950;-79
2022/03/24 04:33:13;;;;;;;;;;;1.10;91.50;;;;;;5083908;28;20002;-79
2022/03/24 04:35:39;;;;;;;;;;;1.00;91.70;;;;;;5102620;28;20251;-80
2022/03/24 04:38:07;;;;;;;;;;;1.00;91.80;;;;;;5083925;28;20314;-79
2022/03/24 04:40:32;;;;;;;;;;;0.90;91.90;;;;;;5083903;28;19912;-79
2022/03/24 04:42:58;;;;;;;;;;;0.90;92.10;;;;;;5101752;28;19915;-79
2022/03/24 04:45:24;;;;;;;;;;;0.90;92.20;;;;;;5083141;28;19908;-79
2022/03/24 04:47:51;;;;;;;;;;;0.90;92.10;;;;;;5102052;28;20298;-80
2022/03/24 04:50:19;;;;;;;;;;;0.90;92.20;;;;;;5102801;28;19908;-80
2022/03/24 04:52:45;;;;;;;;;;;0.90;92.10;;;;;;5102668;28;20448;-79
2022/03/24 04:55:11;;;;;;;;;;;0.90;92.00;;;;;;5084817;28;20018;-79
2022/03/24 04:57:37;;;;;;;;;;;1.00;92.00;;;;;;5103265;28;20422;-79
2022/03/24 05:00:04;;;;;;;;;;;0.90;92.10;;;;;;5103284;28;20128;-80
2022/03/24 05:02:29;;;;;;;;;;;0.90;92.10;;;;;;5102035;28;19927;-79
2022/03/24 05:04:55;;;;;;;;;;;0.90;92.20;;;;;;5102089;28;20531;-79
2022/03/24 05:07:20;;;;;;;;;;;0.80;92.30;;;;;;5101887;28;20414;-79
2022/03/24 05:09:46;;;;;;;;;;;1.60;92.60;;;;;;5102333;28;20415;-80
2022/03/24 05:12:12;;;;;;;;;;;0.90;92.30;;;;;;5084084;28;20184;-79
2022/03/24 05:14:38;;;;;;;;;;;0.90;92.30;;;;;;5102101;28;19908;-79
2022/03/24 05:17:03;;;;;;;;;;;0.80;92.20;;;;;;5084401;28;19938;-79
2022/03/24 05:19:31;;;;;;;;;;;2.20;92.70;;;;;;5084208;28;20537;-80
2022/03/24 05:21:56;;;;;;;;;;;0.90;92.30;;;;;;5088267;28;19926;-80
2022/03/24 05:24:22;;;;;;;;;;;0.90;92.10;;;;;;5109454;28;20002;-80
2022/03/24 05:26:48;;;;;;;;;;;0.90;92.10;;;;;;5114759;28;19918;-80
2022/03/24 05:29:14;;;;;;;;;;;1.00;91.80;;;;;;5096061;28;20116;-80
2022/03/24 05:31:39;;;;;;;;;;;1.00;91.90;;;;;;5086455;28;19908;-80
2022/03/24 05:34:07;;;;;;;;;;;1.20;91.90;;;;;;5084905;28;19936;-79
2022/03/24 05:36:33;;;;;;;;;;;1.10;91.80;;;;;;5083380;28;19934;-80
2022/03/24 05:38:59;;;;;;;;;;;1.10;91.60;;;;;;5083077;28;20390;-79
2022/03/24 05:41:24;;;;;;;;;;;1.10;91.60;;;;;;5082516;28;19996;-80
2022/03/24 05:44:02;;;;;;;;;;;1.10;91.60;;;;;;5101255;28;19916;-80
2022/03/24 05:46:41;;;;;;;;;;;1.20;91.50;;;;;;5082486;28;20208;-79
2022/03/24 05:49:08;;;;;;;;;;;1.30;91.40;;;;;;5082209;28;19914;-80
2022/03/24 05:51:33;;;;;;;;;;;1.40;91.30;;;;;;5082688;28;19916;-79
2022/03/24 05:53:59;;;;;;;;;;;1.50;91.20;;;;;;5100963;28;19954;-79
2022/03/24 05:56:25;;;;;;;;;;;1.50;91.00;;;;;;5100700;28;19908;-80
2022/03/24 05:58:51;;;;;;;;;;;1.60;90.80;;;;;;5081580;28;19908;-80
2022/03/24 06:01:17;;;;;;;;;;;1.70;90.50;;;;;;5081988;28;19927;-80
2022/03/24 06:03:44;;;;;;;;;;;2.50;90.70;;;;;;5100637;28;20007;-79
2022/03/24 06:06:10;;;;;;;;;;;1.80;90.10;;;;;;5082050;28;19968;-79
2022/03/24 06:08:36;;;;;;;;;;;2.00;89.90;;;;;;5100311;28;20382;-79
2022/03/24 06:11:02;;;;;;;;;;;2.00;89.30;;;;;;5100497;28;19923;-80
2022/03/24 06:13:27;;;;;;;;;;;2.10;89.10;;;;;;5100495;28;20337;-79
2022/03/24 06:15:54;;;;;;;;;;;2.20;88.30;;;;;;5099689;28;20425;-79
2022/03/24 06:18:20;;;;;;;;;;;2.30;88.10;;;;;;5100024;28;19919;-80
2022/03/24 06:20:45;;;;;;;;;;;2.50;87.40;;;;;;5100614;28;20266;-79
2022/03/24 06:23:11;;;;;;;;;;;2.50;87.50;;;;;;5101282;28;20443;-80
2022/03/24 06:25:37;;;;;;;;;;;2.60;86.60;;;;;;5102493;28;19931;-80
2022/03/24 06:28:03;;;;;;;;;;;2.70;86.70;;;;;;5101942;28;20003;-80
2022/03/24 06:30:29;;;;;;;;;;;2.90;85.90;;;;;;5104331;28;19908;-80
2022/03/24 06:32:56;;;;;;;;;;;3.00;85.10;;;;;;5090982;28;19915;-81
2022/03/24 06:35:21;;;;;;;;;;;3.10;84.70;;;;;;5104052;28;19959;-80
2022/03/24 06:37:48;;;;;;;;;;;3.30;84.20;;;;;;5102302;28;19958;-79
2022/03/24 06:40:14;;;;;;;;;;;3.40;83.90;;;;;;5101703;28;20034;-80
2022/03/24 06:42:40;;;;;;;;;;;3.50;83.20;;;;;;5084629;28;20473;-80
2022/03/24 06:45:06;;;;;;;;;;;3.70;82.70;;;;;;5083713;28;19907;-79
2022/03/24 06:47:33;;;;;;;;;;;3.90;81.90;;;;;;5102230;28;20410;-79
2022/03/24 06:49:59;;;;;;;;;;;4.00;81.70;;;;;;5101918;28;19985;-80
2022/03/24 06:52:25;;;;;;;;;;;4.10;81.60;;;;;;5102174;28;20417;-79
2022/03/24 06:54:50;;;;;;;;;;;4.20;81.20;;;;;;5101999;28;19908;-79
2022/03/24 06:57:16;;;;;;;;;;;4.40;80.80;;;;;;5084031;28;19912;-80
2022/03/24 06:59:42;;;;;;;;;;;4.50;80.00;;;;;;5102652;28;19934;-80
2022/03/24 07:02:08;;;;;;;;;;;4.60;79.00;;;;;;5084462;28;20018;-79
2022/03/24 07:04:34;;;;;;;;;;;4.80;78.20;;;;;;5104015;28;19907;-79
2022/03/24 07:06:59;;;;;;;;;;;5.00;76.60;;;;;;5103916;28;19908;-80
2022/03/24 07:09:25;;;;;;;;;;;4.40;76.30;;;;;;5084588;28;19977;-80
2022/03/24 07:11:50;;;;;;;;;;;5.40;75.80;;;;;;5103296;28;19908;-80
2022/03/24 07:14:16;;;;;;;;;;;5.40;74.80;;;;;;5103239;28;19947;-80
2022/03/24 07:16:42;;;;;;;;;;;5.50;74.10;;;;;;5102470;28;19938;-80
2022/03/24 07:19:09;;;;;;;;;;;5.70;73.40;;;;;;5102649;28;19919;-79
2022/03/24 07:21:35;;;;;;;;;;;5.90;72.90;;;;;;5102861;28;20270;-80
2022/03/24 07:24:01;;;;;;;;;;;6.00;72.40;;;;;;5102705;28;20448;-79
2022/03/24 07:26:26;;;;;;;;;;;6.20;71.40;;;;;;5102009;28;19995;-80
2022/03/24 07:28:52;;;;;;;;;;;4.30;70.00;;;;;;5108357;28;20182;-80
2022/03/24 07:31:19;;;;;;;;;;;6.30;70.70;;;;;;5112355;28;19957;-80
2022/03/24 07:33:45;;;;;;;;;;;6.30;70.80;;;;;;5114789;28;19918;-79
2022/03/24 07:36:11;;;;;;;;;;;6.50;70.30;;;;;;5114891;28;19907;-80
2022/03/24 07:38:37;;;;;;;;;;;6.50;70.50;;;;;;5110307;28;20044;-80
2022/03/24 07:41:02;;;;;;;;;;;6.60;69.90;;;;;;5107097;28;19934;-79
2022/03/24 07:43:28;;;;;;;;;;;6.80;70.00;;;;;;5086962;28;19961;-80
2022/03/24 07:45:54;;;;;;;;;;;7.00;69.00;;;;;;5105016;28;20224;-80
2022/03/24 07:48:25;;;;;;;;;;;7.10;68.50;;;;;;5104353;28;19919;-79
2022/03/24 07:50:52;;;;;;;;;;;7.20;68.00;;;;;;5086137;28;19919;-80
2022/03/24 07:53:21;;;;;;;;;;;7.30;67.50;;;;;;5105144;28;20113;-80
2022/03/24 07:55:47;;;;;;;;;;;7.70;66.90;;;;;;5087226;28;20239;-80
2022/03/24 07:58:14;;;;;;;;;;;9.50;66.20;;;;;;5104974;28;20000;-80
2022/03/24 08:00:40;;;;;;;;;;;7.50;65.40;;;;;;5086546;28;20584;-79
2022/03/24 08:03:09;;;;;;;;;;;7.80;64.50;;;;;;5087018;28;20306;-80
2022/03/24 08:05:34;;;;;;;;;;;8.00;63.00;;;;;;5086794;28;20128;-80
2022/03/24 08:08:00;;;;;;;;;;;8.10;63.20;;;;;;5105099;28;20421;-80
2022/03/24 08:10:26;;;;;;;;;;;8.20;62.10;;;;;;5105020;28;19919;-80
2022/03/24 08:12:52;;;;;;;;;;;8.50;61.30;;;;;;5105170;28;19922;-80
2022/03/24 08:15:17;;;;;;;;;;;8.60;61.10;;;;;;5105534;28;19908;-79
2022/03/24 08:17:43;;;;;;;;;;;8.80;59.70;;;;;;5106129;28;19968;-80
2022/03/24 08:20:09;;;;;;;;;;;8.90;58.90;;;;;;5107286;28;19978;-80
2022/03/24 08:22:35;;;;;;;;;;;9.10;58.10;;;;;;5110379;28;20135;-80
2022/03/24 08:25:00;;;;;;;;;;;9.30;57.40;;;;;;5110496;28;20341;-80
2022/03/24 08:27:26;;;;;;;;;;;9.50;57.00;;;;;;5112317;28;19907;-80
2022/03/24 08:29:52;;;;;;;;;;;9.70;55.80;;;;;;5113337;28;20353;-80
2022/03/24 08:32:18;;;;;;;;;;;9.80;54.50;;;;;;5121236;28;19915;-81
2022/03/24 08:34:43;;;;;;;;;;;10.10;54.20;;;;;;5120476;28;19908;-80
2022/03/24 08:37:09;;;;;;;;;;;10.20;53.10;;;;;;5099225;28;20354;-80
2022/03/24 08:39:35;;;;;;;;;;;10.30;52.40;;;;;;5115463;28;19978;-80
2022/03/24 08:42:00;;;;;;;;;;;10.30;51.80;;;;;;5112216;28;19912;-80
2022/03/24 08:44:26;;;;;;;;;;;10.40;51.90;;;;;;5114605;28;19907;-80
2022/03/24 08:46:52;;;;;;;;;;;10.60;51.40;;;;;;5112760;28;19912;-80
2022/03/24 08:49:18;;;;;;;;;;;10.60;50.30;;;;;;5110029;28;19987;-80
2022/03/24 08:51:45;;;;;;;;;;;10.60;49.70;;;;;;5089769;28;20155;-80
2022/03/24 08:54:10;;;;;;;;;;;10.10;49.60;;;;;;5089440;28;19918;-80
2022/03/24 08:56:36;;;;;;;;;;;11.00;49.40;;;;;;5104992;28;19907;-80
2022/03/24 08:59:02;;;;;;;;;;;11.30;48.90;;;;;;5087620;28;20329;-80
2022/03/24 09:01:29;;;;;;;;;;;11.50;48.10;;;;;;5103066;28;19908;-80
2022/03/24 09:03:54;;;;;;;;;;;11.60;48.30;;;;;;5101737;28;19916;-80
2022/03/24 09:06:20;;;;;;;;;;;12.90;48.80;;;;;;5104624;28;20007;-82
2022/03/24 09:08:46;;;;;;;;;;;11.80;48.00;;;;;;5104336;28;19908;-80
2022/03/24 09:11:11;;;;;;;;;;;11.90;48.70;;;;;;5115339;28;19908;-80
2022/03/24 09:13:37;;;;;;;;;;;12.10;47.20;;;;;;5116024;28;20108;-80
2022/03/24 09:16:04;;;;;;;;;;;12.00;46.60;;;;;;5114553;28;19919;-81
2022/03/24 09:18:29;;;;;;;;;;;12.20;46.20;;;;;;5115202;28;20046;-80
2022/03/24 09:20:55;;;;;;;;;;;12.20;45.60;;;;;;5118264;28;19927;-81
2022/03/24 09:23:24;;;;;;;;;;;12.20;46.00;;;;;;5112955;28;19915;-81
2022/03/24 09:25:49;;;;;;;;;;;12.40;45.80;;;;;;5085127;28;20305;-80
2022/03/24 09:28:15;;;;;;;;;;;12.50;45.10;;;;;;5105983;28;20073;-80
2022/03/24 09:30:42;;;;;;;;;;;12.70;45.40;;;;;;5103665;28;19915;-81
2022/03/24 09:33:08;;;;;;;;;;;12.60;45.30;;;;;;5102555;28;19908;-81
2022/03/24 09:35:34;;;;;;;;;;;12.70;45.30;;;;;;5101733;28;20108;-80
2022/03/24 09:38:00;;;;;;;;;;;13.00;44.70;;;;;;5097196;28;19915;-80
2022/03/24 09:40:26;;;;;;;;;;;13.20;44.10;;;;;;5099058;28;20333;-81
2022/03/24 09:42:51;;;;;;;;;;;13.20;44.10;;;;;;5099151;28;20413;-80
2022/03/24 09:45:17;;;;;;;;;;;13.30;44.00;;;;;;5099135;28;19915;-81
2022/03/24 09:47:44;;;;;;;;;;;13.60;44.10;;;;;;5099985;28;20590;-81
2022/03/24 09:50:11;;;;;;;;;;;13.90;43.10;;;;;;5082756;28;19914;-81
2022/03/24 09:52:37;;;;;;;;;;;14.00;42.90;;;;;;5099562;28;19938;-82
2022/03/24 09:55:03;;;;;;;;;;;14.10;42.20;;;;;;5099776;28;20459;-81
2022/03/24 09:57:29;;;;;;;;;;;14.10;41.20;;;;;;5099974;28;19914;-82
2022/03/24 09:59:54;;;;;;;;;;;14.30;41.10;;;;;;5100621;28;19920;-77
2022/03/24 10:02:20;;;;;;;;;;;14.60;41.30;;;;;;5100878;28;19916;-82
2022/03/24 10:04:48;;;;;;;;;;;14.50;41.10;;;;;;5100953;28;19908;-81
2022/03/24 10:07:14;;;;;;;;;;;14.70;40.90;;;;;;5081710;28;20302;-79
2022/03/24 10:09:41;;;;;;;;;;;15.00;40.20;;;;;;5100808;28;20282;-79
2022/03/24 10:12:08;;;;;;;;;;;14.90;40.00;;;;;;5080970;28;19994;-82
2022/03/24 10:14:34;;;;;;;;;;;15.10;39.70;;;;;;5098367;28;20340;-81
2022/03/24 10:17:09;;;;;;;;;;;15.10;39.70;;;;;;5099403;28;19908;-78
2022/03/24 10:19:35;;;;;;;;;;;15.40;39.80;;;;;;5098902;28;20195;-80
2022/03/24 10:22:07;;;;;;;;;;;15.70;37.80;;;;;;5080529;28;19926;-78
2022/03/24 10:24:38;;;;;;;;;;;15.70;37.00;;;;;;5097144;28;19918;-79
2022/03/24 10:27:04;;;;;;;;;;;15.70;37.00;;;;;;5080578;28;19934;-78
2022/03/24 10:29:31;;;;;;;;;;;16.00;37.20;;;;;;5099068;28;20005;-79
2022/03/24 10:31:57;;;;;;;;;;;16.00;36.10;;;;;;5097581;28;19980;-78
2022/03/24 10:34:27;;;;;;;;;;;16.10;35.60;;;;;;5097407;28;19908;-79
2022/03/24 10:36:53;;;;;;;;;;;15.80;33.80;;;;;;5080727;28;20382;-79
2022/03/24 10:39:23;;;;;;;;;;;16.00;34.70;;;;;;5098892;28;19961;-80
2022/03/24 10:41:49;;;;;;;;;;;16.10;34.70;;;;;;5098705;28;19908;-80
2022/03/24 10:44:14;;;;;;;;;;;16.50;34.50;;;;;;5097280;28;19927;-79
2022/03/24 10:46:43;;;;;;;;;;;16.70;34.00;;;;;;5080561;28;19946;-79
2022/03/24 10:49:18;;;;;;;;;;;17.00;34.40;;;;;;5082702;28;19908;-79
2022/03/24 10:51:44;;;;;;;;;;;17.20;34.10;;;;;;5097198;28;20311;-80
2022/03/24 10:54:13;;;;;;;;;;;17.20;33.50;;;;;;5097204;28;19911;-79
2022/03/24 10:56:43;;;;;;;;;;;17.20;33.70;;;;;;5099855;28;19907;-78
2022/03/24 10:59:09;;;;;;;;;;;17.40;34.00;;;;;;5097709;28;20279;-78
2022/03/24 11:01:34;;;;;;;;;;;17.70;34.20;;;;;;5098596;28;20479;-79
2022/03/24 11:04:00;;;;;;;;;;;17.90;33.00;;;;;;5100055;28;19947;-79
2022/03/24 11:06:29;;;;;;;;;;;18.00;33.00;;;;;;5101426;28;20569;-79
2022/03/24 11:08:59;;;;;;;;;;;18.00;33.80;;;;;;5102408;28;20104;-79
2022/03/24 11:11:25;;;;;;;;;;;18.30;32.40;;;;;;5101613;28;20412;-79
2022/03/24 11:13:55;;;;;;;;;;;18.50;31.80;;;;;;5101648;28;20073;-79
2022/03/24 11:16:24;;;;;;;;;;;18.90;32.00;;;;;;5102688;28;19907;-79
2022/03/24 11:18:51;;;;;;;;;;;19.30;30.80;;;;;;5102886;28;19930;-79
2022/03/24 11:21:29;;;;;;;;;;;19.30;28.80;;;;;;5101163;28;19916;-79
2022/03/24 11:23:54;;;;;;;;;;;18.70;28.70;;;;;;5102249;28;20363;-80
2022/03/24 11:26:21;;;;;;;;;;;19.80;29.70;;;;;;5102119;28;20097;-79
2022/03/24 11:28:48;;;;;;;;;;;19.90;29.30;;;;;;5100547;28;19915;-80
2022/03/24 11:31:15;;;;;;;;;;;20.10;28.30;;;;;;5102461;28;19908;-79
2022/03/24 11:33:42;;;;;;;;;;;20.30;29.40;;;;;;5084070;28;19968;-80
2022/03/24 11:36:08;;;;;;;;;;;20.60;28.80;;;;;;5102748;28;19908;-79
2022/03/24 11:38:34;;;;;;;;;;;20.80;28.60;;;;;;5110052;28;20165;-78
2022/03/24 11:41:05;;;;;;;;;;;20.50;28.20;;;;;;5114935;28;19911;-79
2022/03/24 11:43:32;;;;;;;;;;;20.80;28.10;;;;;;5115990;28;19961;-79
2022/03/24 11:46:06;;;;;;;;;;;21.00;27.00;;;;;;5114464;28;19920;-79
2022/03/24 11:48:36;;;;;;;;;;;21.00;27.00;;;;;;5103580;28;19923;-79
2022/03/24 11:51:06;;;;;;;;;;;21.20;26.40;;;;;;5102803;28;19916;-79
2022/03/24 11:53:36;;;;;;;;;;;21.50;26.60;;;;;;5102153;28;20037;-79
2022/03/24 11:56:02;;;;;;;;;;;21.70;26.40;;;;;;5102426;28;20245;-79
2022/03/24 11:58:34;;;;;;;;;;;21.70;26.20;;;;;;5100134;28;19955;-80
2022/03/24 12:01:18;;;;;;;;;;;21.90;27.40;;;;;;5101594;28;20004;-78
2022/03/24 12:03:43;;;;;;;;;;;21.70;26.40;;;;;;5101094;28;20112;-79
2022/03/24 12:06:10;;;;;;;;;;;21.90;26.40;;;;;;5099767;28;20260;-79
2022/03/24 12:08:49;;;;;;;;;;;23.30;27.40;;;;;;5101315;28;19918;-78
2022/03/24 12:11:36;;;;;;;;;;;22.10;26.00;;;;;;5101558;28;19999;-80
2022/03/24 12:14:03;;;;;;;;;;;22.10;25.60;;;;;;5099264;28;19915;-79
2022/03/24 12:16:29;;;;;;;;;;;21.50;25.60;;;;;;5101861;28;20122;-78
2022/03/24 12:18:55;;;;;;;;;;;21.90;25.90;;;;;;5101589;28;20374;-80
2022/03/24 12:21:28;;;;;;;;;;;22.20;25.60;;;;;;5101596;28;19998;-79
2022/03/24 12:24:02;;;;;;;;;;;22.50;25.30;;;;;;5101593;28;19920;-79
2022/03/24 12:26:30;;;;;;;;;;;23.00;24.90;;;;;;5101503;28;19907;-79
2022/03/24 12:29:11;;;;;;;;;;;22.80;24.80;;;;;;5101327;28;19919;-79
2022/03/24 12:32:02;;;;;;;;;;;22.90;24.50;;;;;;5101111;28;19919;-78
2022/03/24 12:34:46;;;;;;;;;;;23.00;24.40;;;;;;5098603;28;20294;-80
2022/03/24 12:37:27;;;;;;;;;;;23.20;24.20;;;;;;5101218;28;19919;-80
2022/03/24 12:40:09;;;;;;;;;;;23.20;24.00;;;;;;5100891;28;19911;-80
2022/03/24 12:42:43;;;;;;;;;;;23.50;24.10;;;;;;5100959;28;19923;-79
2022/03/24 12:45:10;;;;;;;;;;;23.60;23.20;;;;;;5082074;28;19933;-79
2022/03/24 12:47:36;;;;;;;;;;;23.80;23.50;;;;;;5100577;28;19908;-79
2022/03/24 12:50:09;;;;;;;;;;;24.40;23.00;;;;;;5099490;28;20447;-80
2022/03/24 12:52:54;;;;;;;;;;;24.00;21.70;;;;;;5100385;28;19947;-81
2022/03/24 12:55:24;;;;;;;;;;;23.90;21.80;;;;;;5100880;28;19923;-82
2022/03/24 12:57:57;;;;;;;;;;;24.00;22.40;;;;;;5100752;28;20410;-81
2022/03/24 13:00:25;;;;;;;;;;;24.30;21.30;;;;;;5099254;28;19923;-80
2022/03/24 13:02:50;;;;;;;;;;;24.30;21.30;;;;;;5100538;28;19923;-80
2022/03/24 13:05:21;;;;;;;;;;;24.10;21.00;;;;;;5099565;28;19908;-82
2022/03/24 13:07:52;;;;;;;;;;;25.20;21.60;;;;;;5101125;28;19907;-79
2022/03/24 13:10:18;;;;;;;;;;;24.60;20.90;;;;;;5100202;28;20192;-82
2022/03/24 13:12:45;;;;;;;;;;;24.60;20.70;;;;;;5099877;28;19908;-79
2022/03/24 13:15:18;;;;;;;;;;;24.70;21.10;;;;;;5101223;28;19918;-79
2022/03/24 13:17:48;;;;;;;;;;;24.90;20.80;;;;;;5100775;28;19938;-80
2022/03/24 13:20:14;;;;;;;;;;;25.00;20.60;;;;;;5098999;28;19947;-80
2022/03/24 13:22:40;;;;;;;;;;;25.10;20.50;;;;;;5100525;28;19924;-79
2022/03/24 13:25:10;;;;;;;;;;;25.20;20.30;;;;;;5100347;28;19914;-78
2022/03/24 13:27:37;;;;;;;;;;;25.40;20.80;;;;;;5083825;28;19942;-79
2022/03/24 13:30:07;;;;;;;;;;;26.00;20.10;;;;;;5098818;28;19915;-79
2022/03/24 13:32:33;;;;;;;;;;;26.30;20.20;;;;;;5100312;28;19918;-80
2022/03/24 13:35:00;;;;;;;;;;;26.10;20.00;;;;;;5098695;28;20107;-80
2022/03/24 13:37:31;;;;;;;;;;;26.20;20.00;;;;;;5098911;28;19908;-80
2022/03/24 13:39:57;;;;;;;;;;;26.40;19.90;;;;;;5098606;28;19908;-79
2022/03/24 13:42:23;;;;;;;;;;;26.40;19.90;;;;;;5099699;28;19977;-80
2022/03/24 13:44:51;;;;;;;;;;;26.50;19.80;;;;;;5100398;28;20416;-80
2022/03/24 13:47:18;;;;;;;;;;;26.50;19.50;;;;;;5099670;28;19951;-79
2022/03/24 13:49:45;;;;;;;;;;;26.20;19.80;;;;;;5098604;28;19908;-79
2022/03/24 13:52:28;;;;;;;;;;;26.60;20.30;;;;;;5098465;28;19919;-80
2022/03/24 13:55:07;;;;;;;;;;;26.90;20.40;;;;;;5100021;28;19915;-80
2022/03/24 13:57:47;;;;;;;;;;;26.50;19.80;;;;;;5098348;28;19919;-79
2022/03/24 14:00:22;;;;;;;;;;;26.70;19.80;;;;;;5099633;28;20131;-79
2022/03/24 14:02:53;;;;;;;;;;;27.20;19.90;;;;;;5099269;28;19927;-80
2022/03/24 14:05:19;;;;;;;;;;;28.30;20.10;;;;;;5097915;28;20057;-80
2022/03/24 14:07:59;;;;;;;;;;;27.40;19.80;;;;;;5099023;28;21324;-79
2022/03/24 14:10:44;;;;;;;;;;;27.30;19.60;;;;;;5099413;28;20141;-80
2022/03/24 14:13:14;;;;;;;;;;;27.30;19.60;;;;;;5098295;28;20000;-80
2022/03/24 14:15:43;;;;;;;;;;;27.50;19.70;;;;;;5098190;28;20188;-80
2022/03/24 14:18:16;;;;;;;;;;;27.00;19.70;;;;;;5099722;28;20271;-80
2022/03/24 14:20:45;;;;;;;;;;;27.70;19.60;;;;;;5099116;28;19918;-79
2022/03/24 14:23:23;;;;;;;;;;;28.10;19.50;;;;;;5099777;28;19916;-79
2022/03/24 14:25:49;;;;;;;;;;;27.70;19.20;;;;;;5081118;28;20011;-78